Time;durP1;ratioP1;P1;durP2;ratioP2;P2;SDS_P1;SDS_P2;PMS_P1;PMS_P2;Temp;Humidity;BMP_temperature;BMP_pressure;BME280_temperature;BME280_humidity;BME280_pressure;Samples;Min_cycle;Max_cycle;Signal;HPM_P1;HPM_P2
2021/03/04 00:01:29;;;;;;;83.60;36.67;;;;;;;4.56;68.31;100694.58;124345;1111;23017;-57
2021/03/04 00:03:58;;;;;;;77.20;34.47;;;;;;;4.55;68.73;100691.02;124562;1112;26802;-58
2021/03/04 00:06:28;;;;;;;82.00;37.20;;;;;;;4.55;68.70;100693.79;124550;1112;23347;-56
2021/03/04 00:08:57;;;;;;;81.55;35.17;;;;;;;4.53;68.66;100681.63;124356;1112;23098;-57
2021/03/04 00:11:26;;;;;;;71.13;32.90;;;;;;;4.51;68.77;100678.50;124337;1112;23106;-57
2021/03/04 00:13:54;;;;;;;80.03;35.50;;;;;;;4.49;68.61;100678.16;124328;1112;27851;-58
2021/03/04 00:16:24;;;;;;;73.67;32.67;;;;;;;4.49;68.94;100673.38;124533;1112;22969;-57
2021/03/04 00:18:54;;;;;;;78.10;32.98;;;;;;;4.50;68.79;100671.40;124469;1112;23123;-59
2021/03/04 00:21:23;;;;;;;75.50;32.35;;;;;;;4.47;68.76;100672.27;124415;1112;26571;-58
2021/03/04 00:23:51;;;;;;;72.43;30.33;;;;;;;4.46;69.03;100659.64;124500;1112;23055;-57
2021/03/04 00:26:21;;;;;;;74.65;32.45;;;;;;;4.46;68.81;100660.42;124339;1111;23056;-57
2021/03/04 00:28:50;;;;;;;71.90;31.65;;;;;;;4.47;68.88;100652.92;124514;1112;24660;-58
2021/03/04 00:31:20;;;;;;;66.17;29.93;;;;;;;4.49;68.68;100650.50;124325;1112;26105;-58
2021/03/04 00:33:49;;;;;;;71.83;31.77;;;;;;;4.50;69.14;100652.05;124601;1111;23046;-58
2021/03/04 00:36:18;;;;;;;75.53;33.13;;;;;;;4.50;68.98;100644.54;124325;1112;23190;-58
2021/03/04 00:38:47;;;;;;;70.70;30.80;;;;;;;4.51;69.05;100639.80;124373;1112;23109;-58
2021/03/04 00:41:16;;;;;;;69.30;31.83;;;;;;;4.50;69.19;100635.45;124408;1112;23054;-58
2021/03/04 00:43:46;;;;;;;69.55;31.87;;;;;;;4.48;69.17;100635.11;124375;1112;23326;-56
2021/03/04 00:46:15;;;;;;;75.80;34.95;;;;;;;4.47;69.21;100630.80;124478;1112;27399;-57
2021/03/04 00:48:45;;;;;;;73.30;31.43;;;;;;;4.44;69.09;100626.90;124323;1112;26128;-56
2021/03/04 00:51:14;;;;;;;73.80;32.17;;;;;;;4.44;69.00;100624.14;124360;1112;27348;-58
2021/03/04 00:53:43;;;;;;;70.67;31.00;;;;;;;4.43;69.23;100617.03;124410;1112;23056;-58
2021/03/04 00:56:13;;;;;;;69.07;32.57;;;;;;;4.41;69.14;100613.14;124333;1112;23035;-57
2021/03/04 00:58:42;;;;;;;71.50;32.80;;;;;;;4.41;68.88;100613.92;124401;1112;23048;-57
2021/03/04 01:01:11;;;;;;;74.10;31.63;;;;;;;4.39;69.23;100605.28;124362;1112;26472;-57
2021/03/04 01:03:40;;;;;;;73.27;32.20;;;;;;;4.35;69.36;100606.56;124305;1112;23254;-58
2021/03/04 01:06:09;;;;;;;79.33;34.00;;;;;;;4.32;69.16;100602.69;124181;1112;25837;-58
2021/03/04 01:08:38;;;;;;;70.17;32.57;;;;;;;4.30;69.43;100601.55;124362;1112;23027;-58
2021/03/04 01:11:07;;;;;;;73.03;33.00;;;;;;;4.26;69.61;100587.81;124377;1112;23047;-58
2021/03/04 01:13:37;;;;;;;74.47;33.20;;;;;;;4.24;69.31;100594.97;124478;1111;26073;-57
2021/03/04 01:16:07;;;;;;;70.47;30.87;;;;;;;4.21;69.18;100588.31;124534;1111;26485;-57
2021/03/04 01:18:36;;;;;;;77.42;33.33;;;;;;;4.18;69.64;100580.10;124349;1112;23122;-57
2021/03/04 01:21:06;;;;;;;61.13;29.33;;;;;;;4.16;69.19;100579.75;124387;1112;26237;-58
2021/03/04 01:23:35;;;;;;;68.17;30.85;;;;;;;4.12;69.14;100579.81;124511;1112;23126;-57
2021/03/04 01:26:04;;;;;;;68.03;30.57;;;;;;;4.08;69.08;100579.89;124423;1112;24702;-58
2021/03/04 01:28:33;;;;;;;67.77;29.83;;;;;;;4.03;69.17;100572.09;124444;1112;23257;-57
2021/03/04 01:31:03;;;;;;;66.37;28.20;;;;;;;3.98;69.52;100566.30;124361;1112;23102;-55
2021/03/04 01:33:31;;;;;;;66.07;29.67;;;;;;;3.93;69.49;100569.58;124447;1112;23111;-58
2021/03/04 01:36:00;;;;;;;68.80;29.45;;;;;;;3.88;69.56;100570.84;124389;1112;24418;-57
2021/03/04 01:38:31;;;;;;;66.07;28.97;;;;;;;3.85;69.86;100568.92;124425;1112;23242;-58
2021/03/04 01:40:59;;;;;;;;;;;;;;;3.84;69.82;100558.31;124508;1112;23267;-55
2021/03/04 01:43:28;;;;;;;67.70;28.20;;;;;;;3.80;69.68;100561.16;124472;1112;21623;-58
2021/03/04 01:45:57;;;;;;;73.43;29.23;;;;;;;3.78;69.49;100555.28;124482;1111;27429;-58
2021/03/04 01:48:27;;;;;;;67.60;27.60;;;;;;;3.76;69.75;100557.69;124738;1112;23112;-57
2021/03/04 01:50:58;;;;;;;68.28;28.00;;;;;;;3.73;70.08;100553.00;124549;1112;23046;-56
2021/03/04 01:53:27;;;;;;;66.10;28.60;;;;;;;3.71;70.35;100547.12;124638;1112;23262;-57
2021/03/04 01:55:57;;;;;;;68.20;28.97;;;;;;;3.69;69.84;100543.22;124439;1112;23252;-58
2021/03/04 01:58:26;;;;;;;66.07;26.57;;;;;;;3.67;70.30;100551.94;124397;1112;27399;-58
2021/03/04 02:00:56;;;;;;;60.87;26.70;;;;;;;3.64;70.33;100546.50;124443;1112;23108;-57
2021/03/04 02:03:27;;;;;;;65.37;25.83;;;;;;;3.62;69.99;100546.90;124503;1112;23053;-58
2021/03/04 02:05:56;;;;;;;60.03;25.97;;;;;;;3.59;70.30;100542.24;124517;1112;23019;-55
2021/03/04 02:08:33;;;;;;;66.10;26.90;;;;;;;3.59;70.05;100547.77;124462;1112;23099;-58
2021/03/04 02:11:07;;;;;;;61.73;25.53;;;;;;;3.58;70.66;100537.16;124650;1112;23056;-56
2021/03/04 02:13:40;;;;;;;58.37;26.17;;;;;;;3.55;70.21;100538.77;124451;1112;23059;-57
2021/03/04 02:16:14;;;;;;;62.43;25.50;;;;;;;3.52;70.08;100545.13;124481;1112;23046;-58
2021/03/04 02:18:46;;;;;;;64.33;25.83;;;;;;;3.50;70.31;100539.25;124340;1112;23358;-55
2021/03/04 02:21:43;;;;;;;58.23;23.77;;;;;;;3.46;70.46;100526.72;124368;1112;23026;-58
2021/03/04 02:24:36;;;;;;;59.00;24.80;;;;;;;3.44;70.40;100535.43;124457;1112;26781;-57
2021/03/04 02:27:09;;;;;;;54.10;22.40;;;;;;;3.44;70.30;100531.89;124600;1111;26430;-58
2021/03/04 02:29:47;;;;;;;51.07;20.93;;;;;;;3.43;70.45;100525.61;124464;1111;26866;-58
2021/03/04 02:32:21;;;;;;;49.73;20.53;;;;;;;3.41;70.07;100522.50;124490;1111;23047;-57
2021/03/04 02:34:54;;;;;;;47.63;17.30;;;;;;;3.42;70.42;100520.49;124532;1112;23052;-59
2021/03/04 02:37:29;;;;;;;42.17;15.97;;;;;;;3.45;70.86;100527.94;124522;1112;23038;-55
2021/03/04 02:40:00;;;;;;;37.70;15.57;;;;;;;3.50;70.70;100519.17;124474;1112;23060;-57
2021/03/04 02:42:30;;;;;;;34.80;12.73;;;;;;;3.57;70.38;100516.26;124527;1112;23055;-56
2021/03/04 02:45:00;;;;;;;34.03;11.97;;;;;;;3.68;70.47;100516.83;124422;1112;23254;-58
2021/03/04 02:47:30;;;;;;;36.33;12.20;;;;;;;3.81;70.60;100514.96;124547;1112;23055;-57
2021/03/04 02:49:59;;;;;;;31.17;12.40;;;;;;;3.95;70.92;100511.92;124564;1112;23052;-58
2021/03/04 02:52:28;;;;;;;36.43;13.33;;;;;;;4.10;70.59;100505.64;124403;1112;23283;-56
2021/03/04 02:54:59;;;;;;;29.67;10.78;;;;;;;4.23;70.57;100507.73;124512;1112;26240;-58
2021/03/04 02:57:31;;;;;;;33.40;11.23;;;;;;;4.34;70.12;100489.72;124563;1111;23520;-58
2021/03/04 03:00:01;;;;;;;31.27;11.50;;;;;;;4.44;70.36;100499.74;124514;1112;23103;-58
2021/03/04 03:02:31;;;;;;;33.23;10.23;;;;;;;4.53;70.38;100496.38;124914;1112;28080;-58
2021/03/04 03:05:01;;;;;;;29.73;11.07;;;;;;;4.61;69.87;100484.72;124481;1112;23186;-57
2021/03/04 03:07:31;;;;;;;30.30;11.40;;;;;;;4.67;70.18;100471.92;124506;1112;23098;-58
2021/03/04 03:10:00;;;;;;;34.33;11.88;;;;;;;4.74;70.11;100479.23;124494;1112;23254;-58
2021/03/04 03:12:30;;;;;;;30.30;11.10;;;;;;;4.81;69.75;100492.90;124640;1111;26241;-58
2021/03/04 03:15:00;;;;;;;29.60;10.82;;;;;;;4.83;70.03;100474.66;124448;1112;23101;-57
2021/03/04 03:17:29;;;;;;;31.70;11.88;;;;;;;4.88;69.87;100479.66;124475;1112;23225;-58
2021/03/04 03:19:58;;;;;;;35.67;12.50;;;;;;;4.91;69.76;100472.48;124358;1112;23037;-57
2021/03/04 03:22:27;;;;;;;33.23;12.37;;;;;;;4.93;69.75;100470.06;124299;1112;26472;-55
2021/03/04 03:24:56;;;;;;;31.67;11.57;;;;;;;4.96;69.94;100477.50;124306;1112;23052;-58
2021/03/04 03:27:26;;;;;;;37.30;12.70;;;;;;;4.97;69.83;100481.02;124430;1112;23046;-56
2021/03/04 03:29:55;;;;;;;33.50;12.67;;;;;;;4.98;69.62;100477.84;124336;1112;23048;-58
2021/03/04 03:32:25;;;;;;;31.50;13.37;;;;;;;4.99;69.63;100479.38;124374;1112;23506;-58
2021/03/04 03:34:55;;;;;;;35.97;12.70;;;;;;;4.99;69.71;100473.84;124544;1112;23060;-57
2021/03/04 03:37:25;;;;;;;31.97;12.50;;;;;;;5.00;69.92;100469.09;124408;1112;23099;-57
2021/03/04 03:39:55;;;;;;;38.87;14.50;;;;;;;5.00;69.62;100464.34;124534;1112;23139;-56
2021/03/04 03:42:25;;;;;;;36.35;12.28;;;;;;;4.99;69.64;100468.31;124574;1112;26654;-57
2021/03/04 03:44:56;;;;;;;35.55;13.00;;;;;;;4.99;69.16;100471.08;124518;1112;23060;-58
2021/03/04 03:47:27;;;;;;;32.30;12.77;;;;;;;5.02;70.30;100461.14;124449;1112;26099;-58
2021/03/04 03:49:58;;;;;;;37.37;13.57;;;;;;;5.02;69.80;100463.91;124551;1112;23041;-58
2021/03/04 03:52:28;;;;;;;31.37;13.53;;;;;;;5.00;69.63;100464.34;124393;1112;23047;-56
2021/03/04 03:54:59;;;;;;;36.42;12.82;;;;;;;4.99;69.76;100459.26;124525;1112;23079;-57
2021/03/04 03:57:30;;;;;;;39.03;13.90;;;;;;;4.97;70.09;100454.14;124435;1111;23106;-58
2021/03/04 03:59:57;;;;;;;;;;;;;;;4.98;70.36;100454.92;124446;1112;23055;-57
2021/03/04 04:02:29;;;;;;;31.53;11.83;;;;;;;5.01;70.19;100457.59;124382;1112;24623;-58
2021/03/04 04:04:58;;;;;;;37.73;13.68;;;;;;;5.04;70.13;100462.27;124557;1112;23042;-58
2021/03/04 04:07:28;;;;;;;40.33;14.47;;;;;;;5.05;70.08;100461.03;124577;1112;23255;-57
2021/03/04 04:09:59;;;;;;;32.27;13.00;;;;;;;5.02;69.99;100467.45;124432;1112;25577;-56
2021/03/04 04:12:30;;;;;;;36.70;14.55;;;;;;;5.01;69.89;100463.12;124577;1112;23066;-58
2021/03/04 04:14:59;;;;;;;41.47;14.27;;;;;;;4.99;69.99;100465.55;124428;1112;23097;-59
2021/03/04 04:17:28;;;;;;;41.73;13.27;;;;;;;4.97;69.94;100462.44;124381;1112;27249;-58
2021/03/04 04:19:58;;;;;;;37.13;14.47;;;;;;;4.93;70.07;100459.77;124229;1112;23115;-57
2021/03/04 04:22:27;;;;;;;33.25;14.30;;;;;;;4.91;69.92;100459.44;124405;1112;23055;-59
2021/03/04 04:24:59;;;;;;;36.73;14.90;;;;;;;4.88;70.15;100465.06;124641;1111;23492;-57
2021/03/04 04:27:27;;;;;;;37.20;14.65;;;;;;;4.86;70.36;100473.02;124599;1112;27059;-59
2021/03/04 04:29:56;;;;;;;40.07;16.20;;;;;;;4.83;69.83;100468.34;124421;1112;23056;-57
2021/03/04 04:32:26;;;;;;;43.67;15.83;;;;;;;4.81;70.21;100462.47;124339;1112;27039;-58
2021/03/04 04:34:56;;;;;;;39.47;15.27;;;;;;;4.76;70.04;100466.54;124359;1112;23192;-58
2021/03/04 04:37:25;;;;;;;39.27;15.13;;;;;;;4.73;70.19;100467.42;124365;1112;23254;-59
2021/03/04 04:39:54;;;;;;;43.00;16.05;;;;;;;4.70;69.98;100459.98;124483;1112;23102;-58
2021/03/04 04:42:24;;;;;;;41.33;16.43;;;;;;;4.65;70.28;100460.52;124353;1112;23049;-58
2021/03/04 04:44:53;;;;;;;39.00;13.50;;;;;;;4.61;70.14;100448.77;124333;1112;26257;-58
2021/03/04 04:47:23;;;;;;;38.97;15.93;;;;;;;4.58;70.38;100454.37;124421;1112;23207;-55
2021/03/04 04:49:51;;;;;;;37.40;15.47;;;;;;;4.54;70.16;100450.91;124523;1111;23169;-58
2021/03/04 04:52:20;;;;;;;37.15;15.30;;;;;;;4.49;70.61;100440.40;124336;1112;23031;-57
2021/03/04 04:54:49;;;;;;;42.57;15.87;;;;;;;4.46;70.52;100441.25;124406;1112;23125;-58
2021/03/04 04:57:18;;;;;;;41.93;16.43;;;;;;;4.43;70.78;100442.12;124319;1112;24698;-58
2021/03/04 04:59:47;;;;;;;41.85;16.80;;;;;;;4.40;70.52;100432.70;124330;1112;23052;-57
2021/03/04 05:02:18;;;;;;;43.67;17.97;;;;;;;4.36;70.76;100434.78;124225;1112;23100;-58
2021/03/04 05:04:46;;;;;;;45.27;17.83;;;;;;;4.33;70.57;100437.61;124301;1112;23255;-58
2021/03/04 05:07:16;;;;;;;49.47;18.80;;;;;;;4.28;70.95;100429.86;124376;1110;26427;-59
2021/03/04 05:09:45;;;;;;;47.43;18.33;;;;;;;4.25;70.70;100433.47;124506;1112;23048;-58
2021/03/04 05:12:14;;;;;;;47.13;19.23;;;;;;;4.21;70.86;100407.91;124325;1112;26046;-58
2021/03/04 05:14:44;;;;;;;50.53;18.30;;;;;;;4.18;70.76;100415.06;124453;1112;24744;-58
2021/03/04 05:17:13;;;;;;;47.13;17.87;;;;;;;4.16;70.92;100413.97;124570;1112;23125;-59
2021/03/04 05:19:42;;;;;;;48.00;18.00;;;;;;;4.14;71.25;100419.91;124320;1111;23059;-57
2021/03/04 05:22:11;;;;;;;46.17;19.50;;;;;;;4.08;71.29;100414.13;124277;1111;23055;-58
2021/03/04 05:24:40;;;;;;;49.07;20.33;;;;;;;4.05;71.72;100409.48;124299;1112;23276;-57
2021/03/04 05:27:10;;;;;;;55.50;21.23;;;;;;;4.04;71.89;100416.20;124313;1112;23273;-58
2021/03/04 05:29:38;;;;;;;54.03;23.87;;;;;;;4.03;71.87;100406.34;124382;1112;26880;-57
2021/03/04 05:32:09;;;;;;;51.73;22.63;;;;;;;4.02;72.24;100407.56;124168;1111;23091;-57
2021/03/04 05:34:39;;;;;;;54.53;23.23;;;;;;;4.02;72.09;100404.02;124422;1112;23099;-59
2021/03/04 05:37:08;;;;;;;58.40;25.27;;;;;;;4.02;72.46;100407.56;124411;1112;23042;-57
2021/03/04 05:39:37;;;;;;;65.43;26.17;;;;;;;4.04;72.64;100401.59;124426;1112;23106;-58
2021/03/04 05:42:09;;;;;;;55.13;24.67;;;;;;;4.07;72.71;100396.02;124448;1112;23046;-56
2021/03/04 05:44:38;;;;;;;63.80;26.77;;;;;;;4.09;72.79;100385.30;124467;1112;28214;-57
2021/03/04 05:47:09;;;;;;;56.77;26.50;;;;;;;4.13;73.42;100387.19;124480;1111;25543;-59
2021/03/04 05:49:45;;;;;;;56.45;25.23;;;;;;;4.16;73.70;100389.86;124367;1112;23060;-59
2021/03/04 05:52:18;;;;;;;62.93;27.27;;;;;;;4.22;74.19;100392.90;124344;1112;24058;-58
2021/03/04 05:54:48;;;;;;;63.23;28.17;;;;;;;4.26;73.81;100388.06;124505;1112;27002;-56
2021/03/04 05:57:20;;;;;;;60.07;27.57;;;;;;;4.29;73.63;100398.23;124388;1112;26117;-56
2021/03/04 05:59:53;;;;;;;62.50;27.50;;;;;;;4.33;73.85;100383.13;124365;1112;23025;-56
2021/03/04 06:02:24;;;;;;;61.47;28.13;;;;;;;4.39;73.86;100383.37;124324;1112;26418;-58
2021/03/04 06:04:53;;;;;;;61.37;28.10;;;;;;;4.43;74.14;100368.25;124392;1112;23270;-58
2021/03/04 06:07:22;;;;;;;62.60;29.07;;;;;;;4.47;74.24;100371.70;124381;1112;23062;-57
2021/03/04 06:09:53;;;;;;;63.87;26.17;;;;;;;4.52;74.42;100370.40;124587;1112;23044;-57
2021/03/04 06:12:23;;;;;;;61.40;28.45;;;;;;;4.57;74.44;100372.66;124374;1112;23048;-58
2021/03/04 06:14:52;;;;;;;61.40;30.13;;;;;;;4.64;74.44;100380.73;124419;1112;26720;-54
2021/03/04 06:17:22;;;;;;;59.85;27.27;;;;;;;4.73;74.75;100375.38;124481;1112;23102;-57
2021/03/04 06:19:55;;;;;;;59.83;28.23;;;;;;;4.80;74.89;100373.18;124403;1112;23058;-58
2021/03/04 06:22:27;;;;;;;62.50;29.73;;;;;;;4.88;74.87;100369.00;124437;1112;23046;-57
2021/03/04 06:24:59;;;;;;;61.57;30.40;;;;;;;4.96;74.65;100371.59;124540;1111;23252;-55
2021/03/04 06:27:30;;;;;;;69.37;29.93;;;;;;;5.03;74.80;100380.45;124409;1112;23042;-57
2021/03/04 06:30:01;;;;;;;68.63;32.43;;;;;;;5.09;74.77;100386.25;124551;1112;23120;-56
2021/03/04 06:32:30;;;;;;;71.93;32.83;;;;;;;5.15;74.72;100387.26;124415;1112;24886;-57
2021/03/04 06:35:08;;;;;;;65.87;30.97;;;;;;;5.21;74.90;100377.20;124579;1112;23103;-55
2021/03/04 06:37:40;;;;;;;68.23;32.50;;;;;;;5.26;74.61;100377.42;124563;1112;27938;-57
2021/03/04 06:40:19;;;;;;;64.40;30.53;;;;;;;5.32;74.46;100372.11;124419;1112;25546;-60
2021/03/04 06:42:48;;;;;;;65.33;31.03;;;;;;;5.37;74.54;100368.81;128220;1112;22889;-58
2021/03/04 06:45:35;;;;;;;72.37;32.90;;;;;;;5.41;74.32;100375.02;128207;1112;22898;-58
2021/03/04 06:48:09;;;;;;;71.13;34.03;;;;;;;5.47;74.68;100381.56;128164;1112;23522;-57
2021/03/04 06:50:39;;;;;;;65.73;31.67;;;;;;;5.52;74.47;100376.27;128241;1111;23648;-58
2021/03/04 06:53:15;;;;;;;69.77;33.05;;;;;;;5.57;74.24;100388.77;128146;1111;22842;-57
2021/03/04 06:55:52;;;;;;;68.83;32.30;;;;;;;5.62;74.35;100377.16;128162;1111;22959;-57
2021/03/04 06:58:30;;;;;;;67.07;33.73;;;;;;;5.69;74.36;100374.93;128140;1111;22876;-58
2021/03/04 07:01:07;;;;;;;65.63;33.50;;;;;;;5.74;74.26;100379.15;128125;1112;23072;-58
2021/03/04 07:03:38;;;;;;;71.97;34.67;;;;;;;5.79;73.87;100375.05;128183;1112;23449;-59
2021/03/04 07:06:09;;;;;;;74.07;35.20;;;;;;;5.82;74.14;100371.38;128176;1111;22852;-58
2021/03/04 07:08:39;;;;;;;64.97;29.90;;;;;;;5.87;74.21;100363.34;128139;1112;23067;-57
2021/03/04 07:11:09;;;;;;;73.37;32.45;;;;;;;5.90;74.23;100362.44;128158;1112;22871;-58
2021/03/04 07:13:40;;;;;;;70.70;32.25;;;;;;;5.94;74.05;100367.89;128117;1112;22845;-58
2021/03/04 07:16:15;;;;;;;68.40;33.23;;;;;;;5.99;74.06;100375.63;128170;1111;22875;-56
2021/03/04 07:18:48;;;;;;;66.83;32.50;;;;;;;6.02;73.90;100378.27;128160;1112;22868;-57
2021/03/04 07:21:18;;;;;;;69.80;33.73;;;;;;;6.06;73.61;100373.39;128162;1111;22869;-57
2021/03/04 07:23:48;;;;;;;63.50;31.33;;;;;;;6.11;73.77;100369.29;128121;1112;22840;-58
2021/03/04 07:26:20;;;;;;;66.83;33.13;;;;;;;6.15;74.01;100361.63;127368;1111;23028;-60
2021/03/04 07:28:50;;;;;;;66.13;32.70;;;;;;;6.21;73.86;100360.62;128145;1111;22911;-61
2021/03/04 07:31:19;;;;;;;70.93;35.07;;;;;;;6.26;73.82;100356.52;128169;1112;22941;-61
2021/03/04 07:33:52;;;;;;;61.87;29.43;;;;;;;6.32;73.23;100365.82;128168;1110;22933;-60
2021/03/04 07:36:23;;;;;;;67.13;33.17;;;;;;;6.37;73.81;100360.48;128254;1111;22980;-60
2021/03/04 07:53:42;;;;;;;;;;;;;;;6.84;73.15;100371.55;128207;1111;22845;-58
2021/03/04 07:56:20;;;;;;;59.33;26.50;;;;;;;6.90;73.20;100374.50;128200;1112;21398;-58
2021/03/04 07:58:50;;;;;;;58.05;27.80;;;;;;;6.96;73.12;100367.94;128217;1112;22931;-58
2021/03/04 08:01:20;;;;;;;73.87;33.73;;;;;;;7.01;72.43;100367.37;128209;1112;23449;-58
2021/03/04 08:03:51;;;;;;;58.80;29.03;;;;;;;7.05;72.40;100362.46;128242;1112;23993;-58
2021/03/04 08:06:20;;;;;;;68.87;32.17;;;;;;;7.08;72.66;100353.21;128119;1112;24154;-58
2021/03/04 08:08:49;;;;;;;61.70;30.53;;;;;;;7.13;72.43;100352.64;128206;1111;23043;-58
2021/03/04 08:11:26;;;;;;;64.20;32.97;;;;;;;7.18;72.33;100352.04;128189;1111;23698;-59
2021/03/04 08:13:56;;;;;;;69.37;33.50;;;;;;;7.25;72.51;100346.23;128171;1112;22882;-58
2021/03/04 08:16:25;;;;;;;67.10;33.47;;;;;;;7.32;71.97;100340.39;128178;1111;23031;-59
2021/03/04 08:18:58;;;;;;;70.00;34.00;;;;;;;7.37;72.08;100352.92;128179;1110;23067;-58
2021/03/04 08:21:27;;;;;;;63.00;30.57;;;;;;;7.44;71.74;100357.44;128171;1112;22879;-58
2021/03/04 08:23:57;;;;;;;72.63;33.57;;;;;;;7.49;71.73;100354.08;128255;1111;22915;-58
2021/03/04 08:26:27;;;;;;;66.17;33.70;;;;;;;7.56;71.69;100353.80;128197;1111;24076;-58
2021/03/04 08:29:06;;;;;;;66.27;31.47;;;;;;;7.63;71.46;100351.53;128183;1111;23586;-58
2021/03/04 08:31:42;;;;;;;65.93;32.73;;;;;;;7.68;71.48;100341.80;128162;1112;23461;-58
2021/03/04 08:34:11;;;;;;;63.50;28.90;;;;;;;7.72;71.21;100334.88;128171;1112;23642;-57
2021/03/04 08:36:42;;;;;;;62.83;32.03;;;;;;;7.77;70.63;100345.41;128210;1111;22863;-58
2021/03/04 08:39:13;;;;;;;60.17;28.47;;;;;;;7.81;70.51;100343.27;128151;1112;22990;-59
2021/03/04 08:41:42;;;;;;;66.15;32.42;;;;;;;7.87;70.63;100343.42;128194;1111;23432;-59
2021/03/04 08:44:12;;;;;;;70.10;34.40;;;;;;;7.91;70.52;100338.50;127958;1112;25909;-58
2021/03/04 08:46:41;;;;;;;;;;;;;;;7.95;70.27;100326.01;128248;1112;23600;-58
2021/03/04 08:49:14;;;;;;;62.07;32.33;;;;;;;8.00;70.29;100321.86;128222;1111;21446;-59
2021/03/04 08:51:44;;;;;;;70.33;34.40;;;;;;;8.05;70.44;100326.80;128152;1112;22883;-58
2021/03/04 08:54:25;;;;;;;69.63;34.10;;;;;;;8.09;69.92;100324.64;128198;1112;22889;-58
2021/03/04 08:56:56;;;;;;;63.23;31.47;;;;;;;8.15;70.03;100314.48;128141;1111;23733;-58
2021/03/04 08:59:27;;;;;;;62.07;29.87;;;;;;;8.22;69.76;100316.17;128162;1112;22888;-58
2021/03/04 09:01:57;;;;;;;54.58;28.40;;;;;;;8.28;69.39;100315.13;128147;1112;22935;-58
2021/03/04 09:04:28;;;;;;;58.35;27.67;;;;;;;8.34;69.29;100318.09;128152;1112;22900;-58
2021/03/04 09:06:57;;;;;;;58.93;29.97;;;;;;;8.38;69.68;100313.16;128187;1112;22873;-59
2021/03/04 09:09:29;;;;;;;58.27;27.57;;;;;;;8.43;68.60;100318.87;128164;1112;23488;-58
2021/03/04 09:11:59;;;;;;;49.57;24.10;;;;;;;8.48;68.71;100304.35;128168;1111;23029;-58
2021/03/04 09:14:30;;;;;;;57.20;24.98;;;;;;;8.51;68.36;100303.41;128158;1111;23951;-58
2021/03/04 09:17:00;;;;;;;60.80;28.57;;;;;;;8.56;68.59;100311.16;128174;1112;22960;-58
2021/03/04 09:19:30;;;;;;;57.88;27.55;;;;;;;8.61;67.61;100304.17;128165;1111;22904;-59
2021/03/04 09:22:02;;;;;;;63.47;27.67;;;;;;;8.65;67.58;100308.35;128168;1112;23654;-58
2021/03/04 09:24:32;;;;;;;56.10;27.65;;;;;;;8.69;67.67;100311.75;128156;1112;22849;-57
2021/03/04 09:27:04;;;;;;;50.67;26.07;;;;;;;8.75;67.77;100306.36;128200;1112;23605;-58
2021/03/04 09:29:38;;;;;;;55.43;27.77;;;;;;;8.78;67.13;100300.63;126769;1112;23058;-59
2021/03/04 09:32:10;;;;;;;67.57;30.87;;;;;;;8.83;67.15;100302.02;128152;1111;22887;-63
2021/03/04 09:34:42;;;;;;;58.13;28.30;;;;;;;8.85;67.13;100305.11;128188;1111;23001;-61
2021/03/04 09:37:12;;;;;;;61.93;28.80;;;;;;;8.86;67.12;100299.06;128181;1111;22987;-60
2021/03/04 09:39:41;;;;;;;;;;;;;;;8.86;66.57;100303.85;128214;1112;22884;-60
2021/03/04 09:42:12;;;;;;;58.87;28.00;;;;;;;8.86;66.63;100299.06;128194;1110;21516;-62
2021/03/04 09:44:54;;;;;;;58.70;28.30;;;;;;;8.87;66.21;100297.06;128148;1111;22867;-60
2021/03/04 09:47:25;;;;;;;51.17;23.20;;;;;;;8.85;66.09;100294.75;128155;1112;23032;-60
2021/03/04 09:49:57;;;;;;;57.27;26.63;;;;;;;8.83;66.36;100288.09;128175;1111;22861;-59
2021/03/04 09:52:28;;;;;;;56.83;28.33;;;;;;;8.84;66.42;100289.62;128191;1111;23570;-61
2021/03/04 09:55:11;;;;;;;57.35;26.85;;;;;;;8.87;66.39;100280.36;128180;1111;22904;-61
2021/03/04 09:57:43;;;;;;;55.20;27.37;;;;;;;8.94;66.99;100277.23;128218;1111;22883;-61
2021/03/04 10:00:25;;;;;;;57.87;26.00;;;;;;;9.04;66.14;100281.57;128177;1111;22910;-61
2021/03/04 10:02:56;;;;;;;50.63;23.63;;;;;;;9.15;65.50;100284.62;128171;1112;23734;-60
2021/03/04 10:05:26;;;;;;;52.40;25.07;;;;;;;9.22;66.28;100275.94;128149;1111;23011;-61
2021/03/04 10:07:59;;;;;;;47.78;23.85;;;;;;;9.30;64.96;100282.72;128225;1111;22907;-61
2021/03/04 10:10:29;;;;;;;55.70;26.17;;;;;;;9.31;65.18;100277.94;128184;1112;23451;-59
2021/03/04 10:12:59;;;;;;;58.90;28.70;;;;;;;9.32;64.54;100280.23;128175;1110;22939;-60
2021/03/04 10:15:30;;;;;;;54.20;27.52;;;;;;;9.31;65.23;100275.89;128216;1112;22905;-61
2021/03/04 10:18:02;;;;;;;56.40;29.93;;;;;;;9.34;64.89;100276.98;128188;1112;23496;-60
2021/03/04 10:20:31;;;;;;;64.00;30.93;;;;;;;9.36;65.00;100272.48;128140;1112;23509;-61
2021/03/04 10:23:00;;;;;;;57.77;28.90;;;;;;;9.37;65.30;100267.70;128153;1112;23757;-61
2021/03/04 10:25:29;;;;;;;60.23;30.40;;;;;;;9.39;65.14;100256.84;128155;1112;23683;-61
2021/03/04 10:27:59;;;;;;;61.33;30.43;;;;;;;9.43;65.06;100263.80;128177;1112;22912;-60
2021/03/04 10:30:29;;;;;;;61.63;29.67;;;;;;;9.45;64.47;100261.31;128168;1111;22895;-59
2021/03/04 10:32:58;;;;;;;62.55;31.40;;;;;;;9.52;64.95;100257.39;128222;1112;24060;-61
2021/03/04 10:35:27;;;;;;;58.80;27.33;;;;;;;9.55;64.15;100254.45;128150;1112;22894;-61
2021/03/04 10:37:59;;;;;;;66.65;31.75;;;;;;;9.62;64.86;100253.34;127712;1112;28427;-57
2021/03/04 10:40:31;;;;;;;57.30;28.70;;;;;;;9.68;64.63;100246.63;128180;1111;22880;-58
2021/03/04 10:43:00;;;;;;;56.77;27.97;;;;;;;9.76;64.26;100247.84;128155;1111;23280;-57
2021/03/04 10:45:29;;;;;;;48.50;23.23;;;;;;;9.82;63.36;100249.97;128199;1111;23019;-59
2021/03/04 10:47:58;;;;;;;65.10;31.13;;;;;;;9.84;64.00;100242.69;128137;1111;28397;-59
2021/03/04 10:50:27;;;;;;;55.07;27.30;;;;;;;9.92;64.35;100237.52;128123;1111;22898;-59
2021/03/04 10:52:56;;;;;;;57.13;28.10;;;;;;;10.00;62.35;100228.31;127207;1112;23101;-57
2021/03/04 10:55:26;;;;;;;49.27;24.60;;;;;;;10.04;62.91;100228.91;123853;1112;23272;-58
2021/03/04 10:57:55;;;;;;;55.67;26.20;;;;;;;10.06;62.22;100245.94;127281;1112;25943;-58
2021/03/04 11:00:25;;;;;;;52.50;26.43;;;;;;;10.06;61.99;100236.79;128155;1112;23534;-58
2021/03/04 11:02:54;;;;;;;50.65;25.52;;;;;;;10.07;62.07;100230.76;128166;1111;22971;-58
2021/03/04 11:05:23;;;;;;;56.83;27.57;;;;;;;10.10;61.05;100235.40;128177;1111;22896;-58
2021/03/04 11:07:52;;;;;;;49.17;23.37;;;;;;;10.14;61.30;100233.20;126257;1111;23017;-56
2021/03/04 11:10:21;;;;;;;52.93;25.40;;;;;;;10.18;61.41;100227.45;123956;1112;23044;-58
2021/03/04 11:12:53;;;;;;;56.77;25.80;;;;;;;10.25;61.08;100224.28;123839;1112;26096;-58
2021/03/04 11:15:24;;;;;;;48.77;23.20;;;;;;;10.30;60.34;100218.84;123900;1110;23222;-55
2021/03/04 11:17:53;;;;;;;43.40;21.95;;;;;;;10.33;60.59;100217.86;128160;1111;22855;-56
2021/03/04 11:20:22;;;;;;;52.70;21.87;;;;;;;10.39;60.84;100217.96;128150;1110;22900;-58
2021/03/04 11:22:51;;;;;;;42.57;20.80;;;;;;;10.43;59.27;100215.75;128142;1111;23076;-58
2021/03/04 11:25:20;;;;;;;41.73;21.53;;;;;;;10.45;60.72;100207.67;128178;1112;22897;-58
2021/03/04 11:27:49;;;;;;;49.33;23.80;;;;;;;10.48;59.67;100209.52;128114;1112;23510;-58
2021/03/04 11:30:20;;;;;;;46.80;22.03;;;;;;;10.50;58.97;100195.85;128025;1111;22929;-58
2021/03/04 11:32:49;;;;;;;44.90;23.07;;;;;;;10.52;60.02;100190.56;128169;1111;22933;-56
2021/03/04 11:35:18;;;;;;;53.67;24.83;;;;;;;10.55;59.46;100184.03;128129;1112;22943;-58
2021/03/04 11:37:48;;;;;;;42.40;22.30;;;;;;;10.58;59.79;100177.47;128097;1111;22945;-57
2021/03/04 11:40:17;;;;;;;46.10;21.50;;;;;;;10.60;58.86;100180.55;128079;1111;22859;-58